Time,TemperatureF,DewpointF,PressureIn,WindDirection,WindDirectionDegrees,WindSpeedMPH,WindSpeedGustMPH,Humidity,HourlyPrecipIn,Conditions,Clouds,dailyrainin,SolarRadiationWatts/m^2,SoftwareType,DateUTC
2013-03-31 00:02:00,61.0,60.0,-100.00,SSE,159,1.0,4.0,95,0.00,,,0.00,0.000000,,2013-03-31 05:02:00,
2013-03-31 00:12:00,61.0,60.0,-100.00,SSE,159,1.0,4.0,95,0.00,,,0.00,0.000000,,2013-03-31 05:12:00,
2013-03-31 00:22:00,61.0,60.0,-100.00,SSE,159,1.0,4.0,95,0.00,,,0.00,0.000000,,2013-03-31 05:22:00,
2013-03-31 00:53:00,59.0,58.0,-100.00,NNE,13,0.0,2.0,95,0.00,,,0.00,0.000000,,2013-03-31 05:53:00,
2013-03-31 01:02:00,59.0,58.0,-100.00,NNE,13,0.0,2.0,95,0.00,,,0.00,0.000000,,2013-03-31 06:02:00,
2013-03-31 01:12:00,59.0,58.0,-100.00,NNE,13,0.0,2.0,95,0.00,,,0.00,0.000000,,2013-03-31 06:12:00,
2013-03-31 01:22:00,59.0,58.0,-100.00,NNE,13,0.0,2.0,95,0.00,,,0.00,0.000000,,2013-03-31 06:22:00,
2013-03-31 01:52:00,59.0,58.0,-100.00,SSE,163,0.0,0.0,96,0.00,,,0.00,0.000000,,2013-03-31 06:52:00,
2013-03-31 02:02:00,59.0,58.0,-100.00,SSE,163,0.0,0.0,96,0.00,,,0.00,0.000000,,2013-03-31 07:02:00,
2013-03-31 02:12:00,59.0,58.0,-100.00,SSE,163,0.0,0.0,96,0.00,,,0.00,0.000000,,2013-03-31 07:12:00,
2013-03-31 02:22:00,59.0,58.0,-100.00,SSE,163,0.0,0.0,96,0.00,,,0.00,0.000000,,2013-03-31 07:22:00,
2013-03-31 02:53:00,58.0,57.0,-100.00,SSE,153,0.0,2.0,96,0.00,,,0.00,0.000000,,2013-03-31 07:53:00,
2013-03-31 03:02:00,58.0,57.0,-100.00,SSE,153,0.0,2.0,96,0.00,,,0.00,0.000000,,2013-03-31 08:02:00,
2013-03-31 03:12:00,58.0,57.0,-100.00,SSE,153,0.0,2.0,96,0.00,,,0.00,0.000000,,2013-03-31 08:12:00,
2013-03-31 03:22:00,58.0,57.0,-100.00,SSE,153,0.0,2.0,96,0.00,,,0.00,0.000000,,2013-03-31 08:22:00,
2013-03-31 03:52:00,57.0,56.0,-100.00,ENE,72,0.0,2.0,96,0.00,,,0.00,0.000000,,2013-03-31 08:52:00,
2013-03-31 04:02:00,57.0,56.0,-100.00,ENE,72,0.0,2.0,96,0.00,,,0.00,0.000000,,2013-03-31 09:02:00,
2013-03-31 04:12:00,57.0,56.0,-100.00,ENE,72,0.0,2.0,96,0.00,,,0.00,0.000000,,2013-03-31 09:12:00,
2013-03-31 04:22:00,57.0,56.0,-100.00,ENE,72,0.0,2.0,96,0.00,,,0.00,0.000000,,2013-03-31 09:22:00,
2013-03-31 04:53:00,56.0,55.0,-100.00,SSE,151,0.0,2.0,97,0.00,,,0.00,0.000000,,2013-03-31 09:53:00,
2013-03-31 05:03:00,56.0,55.0,-100.00,SSE,151,0.0,2.0,97,0.00,,,0.00,0.000000,,2013-03-31 10:03:00,
2013-03-31 05:13:00,56.0,55.0,-100.00,SSE,151,0.0,2.0,97,0.00,,,0.00,0.000000,,2013-03-31 10:13:00,
2013-03-31 05:23:00,56.0,55.0,-100.00,SSE,151,0.0,2.0,97,0.00,,,0.00,0.000000,,2013-03-31 10:23:00,
2013-03-31 05:53:00,54.0,53.0,-100.00,East,89,0.0,0.0,97,0.00,,,0.00,0.000000,,2013-03-31 10:53:00,
2013-03-31 06:02:00,54.0,53.0,-100.00,East,89,0.0,0.0,97,0.00,,,0.00,0.000000,,2013-03-31 11:02:00,
2013-03-31 06:12:00,54.0,53.0,-100.00,East,89,0.0,0.0,97,0.00,,,0.00,0.000000,,2013-03-31 11:12:00,
2013-03-31 06:23:00,54.0,53.0,-100.00,East,89,0.0,0.0,97,0.00,,,0.00,0.000000,,2013-03-31 11:23:00,
2013-03-31 06:53:00,53.0,52.0,-100.00,SSE,164,0.0,0.0,97,0.00,,,0.00,0.000000,,2013-03-31 11:53:00,
2013-03-31 07:03:00,53.0,52.0,-100.00,SSE,164,0.0,0.0,97,0.00,,,0.00,0.000000,,2013-03-31 12:03:00,
2013-03-31 07:12:00,53.0,52.0,-100.00,SSE,164,0.0,0.0,97,0.00,,,0.00,0.000000,,2013-03-31 12:12:00,
2013-03-31 07:22:00,53.0,52.0,-100.00,SSE,164,0.0,0.0,97,0.00,,,0.00,0.000000,,2013-03-31 12:22:00,
2013-03-31 07:53:00,53.0,52.0,-100.00,NNE,16,0.0,2.0,97,0.00,,,0.00,26.000000,,2013-03-31 12:53:00,
2013-03-31 08:02:00,53.0,52.0,-100.00,NNE,16,0.0,2.0,97,0.00,,,0.00,26.000000,,2013-03-31 13:02:00,
2013-03-31 08:12:00,53.0,52.0,-100.00,NNE,16,0.0,2.0,97,0.00,,,0.00,26.000000,,2013-03-31 13:12:00,
2013-03-31 08:22:00,53.0,52.0,-100.00,NNE,16,0.0,2.0,97,0.00,,,0.00,26.000000,,2013-03-31 13:22:00,
2013-03-31 08:53:00,65.0,64.0,-100.00,North,360,0.0,2.0,97,0.00,,,0.00,194.000000,,2013-03-31 13:53:00,
2013-03-31 09:02:00,65.0,64.0,-100.00,North,360,0.0,2.0,97,0.00,,,0.00,194.000000,,2013-03-31 14:02:00,
2013-03-31 09:12:00,65.0,64.0,-100.00,North,360,0.0,2.0,97,0.00,,,0.00,194.000000,,2013-03-31 14:12:00,
2013-03-31 09:22:00,65.0,64.0,-100.00,North,360,0.0,2.0,97,0.00,,,0.00,194.000000,,2013-03-31 14:22:00,
2013-03-31 09:52:00,69.0,65.0,-100.00,West,274,4.0,8.0,86,0.00,,,0.00,247.000000,,2013-03-31 14:52:00,
2013-03-31 10:03:00,69.0,65.0,-100.00,West,274,4.0,8.0,86,0.00,,,0.00,247.000000,,2013-03-31 15:03:00,
2013-03-31 10:13:00,69.0,65.0,-100.00,West,274,4.0,8.0,86,0.00,,,0.00,247.000000,,2013-03-31 15:13:00,
2013-03-31 10:22:00,69.0,65.0,-100.00,West,274,4.0,8.0,86,0.00,,,0.00,247.000000,,2013-03-31 15:22:00,
2013-03-31 10:54:00,72.0,65.0,-100.00,WSW,251,4.0,11.0,78,0.00,,,0.00,382.000000,,2013-03-31 15:54:00,
2013-03-31 11:03:00,72.0,65.0,-100.00,WSW,251,4.0,11.0,78,0.00,,,0.00,382.000000,,2013-03-31 16:03:00,
2013-03-31 11:13:00,72.0,65.0,-100.00,WSW,251,4.0,11.0,78,0.00,,,0.00,382.000000,,2013-03-31 16:13:00,
2013-03-31 11:23:00,72.0,65.0,-100.00,WSW,251,4.0,11.0,78,0.00,,,0.00,382.000000,,2013-03-31 16:23:00,
2013-03-31 11:53:00,75.0,62.0,-100.00,WSW,253,6.0,12.0,64,0.00,,,0.00,713.000000,,2013-03-31 16:53:00,
2013-03-31 12:03:00,75.0,62.0,-100.00,WSW,253,6.0,12.0,64,0.00,,,0.00,713.000000,,2013-03-31 17:03:00,
2013-03-31 12:12:00,75.0,62.0,-100.00,WSW,253,6.0,12.0,64,0.00,,,0.00,713.000000,,2013-03-31 17:12:00,
2013-03-31 12:22:00,75.0,62.0,-100.00,WSW,253,6.0,12.0,64,0.00,,,0.00,713.000000,,2013-03-31 17:22:00,
2013-03-31 12:52:00,76.0,62.0,-100.00,SW,226,6.0,14.0,62,0.00,,,0.00,671.000000,,2013-03-31 17:52:00,
2013-03-31 13:03:00,76.0,62.0,-100.00,SW,226,6.0,14.0,62,0.00,,,0.00,671.000000,,2013-03-31 18:03:00,
2013-03-31 13:13:00,76.0,62.0,-100.00,SW,226,6.0,14.0,62,0.00,,,0.00,671.000000,,2013-03-31 18:13:00,
2013-03-31 13:22:00,76.0,62.0,-100.00,SW,226,6.0,14.0,62,0.00,,,0.00,671.000000,,2013-03-31 18:22:00,
2013-03-31 13:53:00,77.0,62.0,-100.00,SW,222,7.0,15.0,59,0.00,,,0.00,832.000000,,2013-03-31 18:53:00,
2013-03-31 14:03:00,77.0,62.0,-100.00,SW,222,7.0,15.0,59,0.00,,,0.00,832.000000,,2013-03-31 19:03:00,
2013-03-31 14:12:00,77.0,62.0,-100.00,SW,222,7.0,15.0,59,0.00,,,0.00,832.000000,,2013-03-31 19:12:00,
2013-03-31 14:22:00,77.0,62.0,-100.00,SW,222,7.0,15.0,59,0.00,,,0.00,832.000000,,2013-03-31 19:22:00,
2013-03-31 14:54:00,76.0,64.0,-100.00,South,187,8.0,17.0,67,0.00,,,0.00,702.000000,,2013-03-31 19:54:00,
2013-03-31 15:03:00,76.0,64.0,-100.00,South,187,8.0,17.0,67,0.00,,,0.00,702.000000,,2013-03-31 20:03:00,
2013-03-31 15:12:00,76.0,64.0,-100.00,South,187,8.0,17.0,67,0.00,,,0.00,702.000000,,2013-03-31 20:12:00,
2013-03-31 15:22:00,76.0,64.0,-100.00,South,187,8.0,17.0,67,0.00,,,0.00,702.000000,,2013-03-31 20:22:00,
2013-03-31 15:53:00,77.0,64.0,-100.00,South,185,7.0,16.0,64,0.00,,,0.00,820.000000,,2013-03-31 20:53:00,
2013-03-31 16:02:00,77.0,64.0,-100.00,South,185,7.0,16.0,64,0.00,,,0.00,820.000000,,2013-03-31 21:02:00,
2013-03-31 16:12:00,77.0,64.0,-100.00,South,185,7.0,16.0,64,0.00,,,0.00,820.000000,,2013-03-31 21:12:00,
2013-03-31 16:22:00,77.0,64.0,-100.00,South,185,7.0,16.0,64,0.00,,,0.00,820.000000,,2013-03-31 21:22:00,
2013-03-31 16:54:00,75.0,63.0,-100.00,South,185,7.0,15.0,66,0.00,,,0.00,733.000000,,2013-03-31 21:54:00,
2013-03-31 17:03:00,75.0,63.0,-100.00,South,185,7.0,15.0,66,0.00,,,0.00,733.000000,,2013-03-31 22:03:00,
2013-03-31 17:13:00,75.0,63.0,-100.00,South,185,7.0,15.0,66,0.00,,,0.00,733.000000,,2013-03-31 22:13:00,
2013-03-31 17:23:00,75.0,63.0,-100.00,South,185,7.0,15.0,66,0.00,,,0.00,733.000000,,2013-03-31 22:23:00,
2013-03-31 17:53:00,70.0,63.0,-100.00,South,179,8.0,14.0,79,0.00,,,0.00,254.000000,,2013-03-31 22:53:00,
2013-03-31 18:03:00,70.0,63.0,-100.00,South,179,8.0,14.0,79,0.00,,,0.00,254.000000,,2013-03-31 23:03:00,
2013-03-31 18:13:00,70.0,63.0,-100.00,South,179,8.0,14.0,79,0.00,,,0.00,254.000000,,2013-03-31 23:13:00,
2013-03-31 18:22:00,70.0,63.0,-100.00,South,179,8.0,14.0,79,0.00,,,0.00,254.000000,,2013-03-31 23:22:00,
2013-03-31 18:53:00,69.0,64.0,-100.00,South,187,6.0,13.0,83,0.00,,,0.00,48.000000,,2013-03-31 23:53:00,
2013-03-31 19:02:00,69.0,64.0,-100.00,South,187,6.0,13.0,83,0.00,,,0.00,48.000000,,2013-04-01 00:02:00,
2013-03-31 19:12:00,69.0,64.0,-100.00,South,187,6.0,13.0,83,0.00,,,0.00,48.000000,,2013-04-01 00:12:00,
2013-03-31 19:22:00,69.0,64.0,-100.00,South,187,6.0,13.0,83,0.00,,,0.00,48.000000,,2013-04-01 00:22:00,
2013-03-31 19:53:00,63.0,61.0,-100.00,NNE,17,3.0,20.0,92,0.30,,,0.30,1.000000,,2013-04-01 00:53:00,
2013-03-31 20:03:00,63.0,61.0,-100.00,NNE,17,3.0,20.0,92,0.30,,,0.30,1.000000,,2013-04-01 01:03:00,
2013-03-31 20:12:00,63.0,61.0,-100.00,NNE,17,3.0,20.0,92,0.30,,,0.30,1.000000,,2013-04-01 01:12:00,
2013-03-31 20:22:00,63.0,61.0,-100.00,NNE,17,3.0,20.0,92,0.30,,,0.30,1.000000,,2013-04-01 01:22:00,
2013-03-31 20:53:00,62.0,61.0,-100.00,SE,126,4.0,6.0,96,0.08,,,0.38,0.000000,,2013-04-01 01:53:00,
2013-03-31 21:03:00,62.0,61.0,-100.00,SE,126,4.0,6.0,96,0.08,,,0.38,0.000000,,2013-04-01 02:03:00,
2013-03-31 21:12:00,62.0,61.0,-100.00,SE,126,4.0,6.0,96,0.08,,,0.38,0.000000,,2013-04-01 02:12:00,
2013-03-31 21:22:00,62.0,61.0,-100.00,SE,126,4.0,6.0,96,0.08,,,0.38,0.000000,,2013-04-01 02:22:00,
2013-03-31 21:53:00,62.0,61.0,-100.00,South,172,2.0,5.0,96,0.00,,,0.38,0.000000,,2013-04-01 02:53:00,
2013-03-31 22:03:00,62.0,61.0,-100.00,South,172,2.0,5.0,96,0.00,,,0.38,0.000000,,2013-04-01 03:03:00,
2013-03-31 22:12:00,62.0,61.0,-100.00,South,172,2.0,5.0,96,0.00,,,0.38,0.000000,,2013-04-01 03:12:00,
2013-03-31 22:22:00,62.0,61.0,-100.00,South,172,2.0,5.0,96,0.00,,,0.38,0.000000,,2013-04-01 03:22:00,
2013-03-31 22:53:00,62.0,61.0,-100.00,WSW,243,0.0,5.0,97,0.00,,,0.38,0.000000,,2013-04-01 03:53:00,
2013-03-31 23:03:00,62.0,61.0,-100.00,WSW,243,0.0,5.0,97,0.00,,,0.38,0.000000,,2013-04-01 04:03:00,
2013-03-31 23:14:00,62.0,61.0,-100.00,WSW,243,0.0,5.0,97,0.00,,,0.38,0.000000,,2013-04-01 04:14:00,
2013-03-31 23:23:00,62.0,61.0,-100.00,WSW,243,0.0,5.0,97,0.00,,,0.38,0.000000,,2013-04-01 04:23:00,
2013-03-31 23:53:00,61.0,60.0,-100.00,SSW,200,2.0,4.0,97,0.00,,,0.38,0.000000,,2013-04-01 04:53:00,